createdAt,value
2022-08-25T00:00:45.151Z,0
2022-08-25T00:06:07.434Z,0
2022-08-25T00:11:30.748Z,0
2022-08-25T00:22:22.114Z,0
2022-08-25T00:27:48.912Z,0
2022-08-25T00:33:11.709Z,0
2022-08-25T00:38:38.172Z,0
2022-08-25T00:44:00.958Z,0
2022-08-25T00:49:25.840Z,0
2022-08-25T00:54:48.171Z,0
2022-08-25T01:00:10.905Z,0
2022-08-25T01:05:35.663Z,0
2022-08-25T01:10:58.373Z,0
2022-08-25T01:32:42.974Z,0
2022-08-25T01:38:06.302Z,0
2022-08-25T01:43:32.406Z,0
2022-08-25T01:48:54.937Z,0
2022-08-25T01:54:17.510Z,0
2022-08-25T01:59:40.104Z,0
2022-08-25T02:05:05.661Z,0
2022-08-25T02:10:30.868Z,0
2022-08-25T02:15:53.191Z,0
2022-08-25T02:21:15.543Z,0
2022-08-25T02:26:38.380Z,0
2022-08-25T02:32:00.822Z,0
2022-08-25T02:37:23.159Z,0
2022-08-25T02:42:48.563Z,0
2022-08-25T02:48:11.073Z,0
2022-08-25T02:53:34.042Z,0
2022-08-25T02:58:56.543Z,0
2022-08-25T03:04:27.269Z,0
2022-08-25T03:15:30.954Z,0
2022-08-25T03:21:11.945Z,0
2022-08-25T03:26:43.241Z,0
2022-08-25T03:32:06.346Z,0
2022-08-25T03:37:29.017Z,0
2022-08-25T03:43:00.605Z,0
2022-08-25T03:48:40.440Z,0
2022-08-25T03:54:03.260Z,0
2022-08-25T03:59:25.788Z,0
2022-08-25T04:04:48.138Z,0
2022-08-25T04:10:13.511Z,0
2022-08-25T04:15:36.120Z,0
2022-08-25T04:31:54.622Z,19
2022-08-25T04:37:20.152Z,26.1
2022-08-25T04:42:45.580Z,35.2
2022-08-25T04:48:10.834Z,36.6
2022-08-25T04:53:33.526Z,43.3
2022-08-25T04:58:56.037Z,60.3
2022-08-25T05:04:29.725Z,68.8
2022-08-25T05:09:54.895Z,75.3
2022-08-25T05:15:19.885Z,81.7
2022-08-25T05:20:42.578Z,104.8
2022-08-25T05:26:05.125Z,132.4
2022-08-25T05:31:30.165Z,132.6
2022-08-25T05:36:52.914Z,201.1
2022-08-25T05:42:16.445Z,358.4
2022-08-25T05:47:40.965Z,320.9
2022-08-25T05:53:03.949Z,279.4
2022-08-25T05:58:26.349Z,328.5
2022-08-25T06:03:49.265Z,316.2
2022-08-25T06:19:57.418Z,328
2022-08-25T06:25:19.604Z,348.3
2022-08-25T06:30:42.676Z,409.9
2022-08-25T06:36:07.555Z,642.7
2022-08-25T06:41:37.490Z,1135
2022-08-25T06:47:00.236Z,1644.7
2022-08-25T06:52:29.792Z,3137.3
2022-08-25T06:58:11.706Z,770.5
2022-08-25T07:03:35.765Z,2752.1
2022-08-25T07:08:58.243Z,565.9
2022-08-25T07:14:20.789Z,1116.3
2022-08-25T07:19:44.286Z,524
2022-08-25T07:25:06.996Z,521.9
2022-08-25T07:30:29.498Z,702.5
2022-08-25T07:35:59.412Z,819.8
2022-08-25T07:41:21.918Z,1308.6
2022-08-25T07:46:46.822Z,2111.9
2022-08-25T07:52:10.556Z,1975.7
2022-08-25T08:08:24.069Z,849.8
2022-08-25T08:14:08.602Z,2865
2022-08-25T08:19:32.362Z,3279.7
2022-08-25T08:24:59.858Z,3009.3
2022-08-25T08:30:26.797Z,3023
2022-08-25T08:35:50.956Z,3335.8
2022-08-25T08:41:13.631Z,3526.5
2022-08-25T08:46:39.423Z,3554.7
2022-08-25T08:52:40.648Z,3277.5
2022-08-25T08:58:04.947Z,3266.8
2022-08-25T09:03:28.131Z,2977.4
2022-08-25T09:08:51.082Z,3309.3
2022-08-25T09:14:16.364Z,3556.6
2022-08-25T09:19:42.514Z,3503.9
2022-08-25T09:30:32.154Z,3695.7
2022-08-25T09:35:57.997Z,3362.6
2022-08-25T09:41:21.772Z,3434.4
2022-08-25T09:46:48.613Z,3801.3
2022-08-25T09:52:13.057Z,3849
2022-08-25T09:57:35.334Z,4022.3
2022-08-25T10:02:57.988Z,4313.5
2022-08-25T10:08:25.248Z,3970.2
2022-08-25T10:13:57.321Z,3834.1
2022-08-25T10:19:21.486Z,4239.6
2022-08-25T10:24:44.604Z,3861.3
2022-08-25T10:30:06.755Z,3690.5
2022-08-25T10:35:37.799Z,4093.9
2022-08-25T10:41:00.264Z,4004.1
2022-08-25T10:46:22.999Z,4255
2022-08-25T10:51:45.739Z,4735.2
2022-08-25T11:02:43.046Z,4015.7
2022-08-25T11:13:31.769Z,4049.4
2022-08-25T11:18:54.609Z,3451.7
2022-08-25T11:24:18.422Z,3720.9
2022-08-25T11:29:42.935Z,3443.6
2022-08-25T11:41:11.947Z,3638.4
2022-08-25T11:46:35.521Z,3981.3
2022-08-25T11:52:03.460Z,3922.9
2022-08-25T11:57:29.186Z,3848.5
2022-08-25T12:02:52.693Z,3669.1
2022-08-25T12:08:15.089Z,3388
2022-08-25T12:13:37.341Z,3250
2022-08-25T12:19:13.337Z,3497.2
2022-08-25T12:24:36.296Z,3249.9
2022-08-25T12:29:59.586Z,3542.8
2022-08-25T12:37:00.225Z,3394
2022-08-25T12:42:26.995Z,3322.9
2022-08-25T12:47:49.371Z,3357.6
2022-08-25T12:53:14.672Z,3618.4
2022-08-25T12:59:01.527Z,3605
2022-08-25T13:04:23.919Z,3469
2022-08-25T13:15:44.622Z,3783.1
2022-08-25T13:27:23.920Z,3581.5
2022-08-25T13:32:46.590Z,3607.2
2022-08-25T13:38:11.311Z,3694.5
2022-08-25T13:43:54.564Z,3771.3
2022-08-25T13:49:23.144Z,3895.7
2022-08-25T13:54:55.502Z,3676.1
2022-08-25T14:00:32.907Z,3355.7
2022-08-25T14:16:48.722Z,3312.2
2022-08-25T14:22:20.780Z,3487.3
2022-08-25T14:28:13.572Z,3434.6
2022-08-25T14:33:43.207Z,3282.3
2022-08-25T14:46:40.814Z,2776.7
2022-08-25T14:52:17.180Z,532.9
2022-08-25T15:03:38.319Z,568.1
2022-08-25T15:14:41.064Z,756.4
2022-08-25T15:20:07.453Z,739.2
2022-08-25T15:25:29.991Z,644.4
2022-08-25T15:30:52.406Z,583.4
2022-08-25T15:36:15.643Z,625.4
2022-08-25T15:41:45.730Z,605.5
2022-08-25T15:47:13.201Z,647.7
2022-08-25T15:52:49.026Z,570.7
2022-08-25T15:58:12.016Z,509.6
2022-08-25T16:03:34.765Z,501.9
2022-08-25T16:09:11.434Z,478.5
2022-08-25T16:14:36.893Z,434.6
2022-08-25T16:25:25.054Z,466.8
2022-08-25T16:30:53.516Z,469.8
2022-08-25T16:36:32.843Z,459.8
2022-08-25T16:41:55.330Z,482.6
2022-08-25T16:47:27.232Z,486.9
2022-08-25T16:58:19.424Z,388.6
2022-08-25T17:03:51.903Z,360.8
2022-08-25T17:09:24.410Z,312.3
2022-08-25T17:14:47.590Z,258.4
2022-08-25T17:20:14.357Z,227.5
2022-08-25T17:25:43.507Z,230.8
2022-08-25T17:31:06.605Z,205.5
2022-08-25T17:41:45.251Z,90.8
2022-08-25T17:47:08.162Z,58.6
2022-08-25T17:52:32.617Z,49.7
2022-08-25T17:57:54.842Z,40.9
2022-08-25T18:03:17.615Z,36.9
2022-08-25T18:08:40.426Z,33.5
2022-08-25T18:14:02.986Z,26.4
2022-08-25T18:19:28.219Z,22.2
2022-08-25T18:35:39.630Z,13
2022-08-25T18:41:02.685Z,8
2022-08-25T18:46:25.993Z,3
2022-08-25T18:51:48.733Z,0
2022-08-25T18:57:11.382Z,0
2022-08-25T19:02:47.345Z,0
2022-08-25T19:08:11.722Z,0
2022-08-25T19:13:34.202Z,0
2022-08-25T19:18:58.557Z,0
2022-08-25T19:24:22.111Z,0
2022-08-25T19:29:44.638Z,0
2022-08-25T19:35:07.427Z,0
2022-08-25T19:40:30.694Z,0
2022-08-25T19:46:03.368Z,0
2022-08-25T19:51:26.625Z,0
2022-08-25T19:56:55.977Z,0
2022-08-25T20:02:33.055Z,0
2022-08-25T20:07:56.846Z,0
2022-08-25T20:13:30.165Z,0
2022-08-25T20:24:15.771Z,0
2022-08-25T20:29:39.221Z,0
2022-08-25T20:35:13.457Z,0
2022-08-25T20:40:47.669Z,0
2022-08-25T20:46:12.320Z,0
2022-08-25T20:51:37.436Z,0
2022-08-25T20:57:05.786Z,0
2022-08-25T21:02:32.037Z,0
2022-08-25T21:07:54.617Z,0
2022-08-25T21:18:22.750Z,0
2022-08-25T21:23:46.917Z,0
2022-08-25T21:29:15.677Z,0
2022-08-25T21:34:40.142Z,0
2022-08-25T21:40:13.598Z,0
2022-08-25T21:45:47.189Z,0
2022-08-25T21:51:13.546Z,0
2022-08-25T21:56:36.239Z,0
2022-08-25T22:12:44.334Z,0
2022-08-25T22:18:06.934Z,0
2022-08-25T22:23:33.499Z,0
2022-08-25T22:29:09.051Z,0
2022-08-25T22:34:35.800Z,0
2022-08-25T22:40:03.977Z,0
2022-08-25T22:45:26.445Z,0
2022-08-25T22:50:49.225Z,0
2022-08-25T22:56:12.226Z,0
2022-08-25T23:01:47.088Z,0
2022-08-25T23:12:14.303Z,0
2022-08-25T23:23:20.069Z,0
2022-08-25T23:28:45.649Z,0
2022-08-25T23:34:10.493Z,0
2022-08-25T23:39:40.303Z,0
2022-08-25T23:55:54.461Z,0
